Airfield :







YOU CAN JOIN US ON...

 
LOGIN :

Register | Disclaimer

   EN    FR    IT 

 









Legend :    VFR   Marginal VFR   IFR   Intensive IFR   Very Intensive IFR
Visi :
Ceiling :
>= 8 km
>= 3000ft
5 to 8 km
1000 to 3000 ft
1500m to 5 km
500 to 1000 ft
800 to 1500m
200 to 500 ft
< 800m
< 200 ft
Symbols :   Thunderstorms  Fog  Heavy snow  Heavy precipitations  Wind > 20 kt






- Airport Elevation : 792 ft
- IATA code : YSC


CYSC - Sherbrooke

CURRENT METAR :
  • 151319Z AUTO 27023G34KT 5SM -SN BKN015 OVC021 00/M02 A2923 RMK PRESRR SLP908

EXPIRED METARs :
  • 151316Z AUTO 26019G29KT 6SM -SN BKN015 OVC021 00/M02 A2923 RMK PRESRR SLP907
  • 151247Z AUTO 26015G28KT 3SM -SN BKN015 OVC020 00/M01 A2921 RMK PRESRR SLP900
  • 151200Z AUTO 25012G23KT 230V290 2 1/4SM -SN BKN015 OVC020 M00/M02 A2916 RMK PRESRR SLP882
  • 151100Z AUTO 26020G33KT 6SM -SN BKN019 OVC026 M00/M03 A2912 RMK PRESRR SLP871
  • 151049Z AUTO 25023G36KT 8SM -SN SCT019 OVC026 00/M03 A2911 RMK SLP866

TAF TAF CYSC
Valid from the 15 at 11:00 until the 15 at 23:00 UTC


151038Z 1511/1523 24015G25KT 1SM -SN OVC012
TEMPO 1511/1514 6SM -SN
BECMG 1511/1513 26020G40KT
FM151400 26020G40KT 3/4SM -SN BLSN VV010
TEMPO 1514/1519 6SM -SN BLSN
FM151900 27025G35KT 21/2SM -SN BLSN OVC020
TEMPO 1519/1523 P6SM -SN OVC025 RMK FCST BASED ON AUTO OBS. NXT FCST BY 151800Z



MET'MAP, your aeronautical weather chart ! - Copyright ORBIFLY December 2007 - Disclaimer

ORBIFLY MET'MAP TEAM :

Programming & Development : Alexandra Zaïnal
Concept & original design : Baudouin d'Aumeries
Assistance for programming : Marc-Olivier Méhu
Technical & hardware support : Manuel Goepfert

Contact : metmap@orbifly.com




SOURCES & CREDITS :

   NOAA